createdAt,value
2022-10-02T00:01:33.740Z,6.87
2022-10-02T00:04:02.695Z,7.97
2022-10-02T00:06:39.125Z,5.83
2022-10-02T00:09:11.457Z,5.50
2022-10-02T00:11:44.703Z,5.03
2022-10-02T00:14:17.342Z,2.27
2022-10-02T00:16:47.761Z,5.10
2022-10-02T00:19:18.590Z,7.30
2022-10-02T00:21:56.477Z,4.63
2022-10-02T00:24:28.795Z,4.87
2022-10-02T00:27:04.824Z,7.50
2022-10-02T00:29:40.943Z,6.57
2022-10-02T00:32:17.925Z,5.80
2022-10-02T00:35:20.686Z,5.37
2022-10-02T00:37:58.074Z,3.53
2022-10-02T00:40:40.484Z,8.77
2022-10-02T00:43:19.669Z,4.47
2022-10-02T00:46:00.533Z,5.67
2022-10-02T00:48:50.824Z,5.17
2022-10-02T00:51:36.576Z,3.97
2022-10-02T00:54:20.283Z,8.33
2022-10-02T00:56:58.589Z,3.57
2022-10-02T00:59:44.739Z,6.20
2022-10-02T01:02:36.215Z,8.10
2022-10-02T01:05:07.609Z,5.70
2022-10-02T01:07:38.843Z,6.33
2022-10-02T01:10:08.412Z,6.27
2022-10-02T01:12:37.478Z,5.30
2022-10-02T01:15:12.792Z,5.43
2022-10-02T01:17:43.366Z,7.27
2022-10-02T01:20:17.703Z,3.93
2022-10-02T01:22:50.261Z,7.27
2022-10-02T01:25:19.397Z,6.70
2022-10-02T01:27:47.871Z,6.83
2022-10-02T01:30:19.075Z,4.80
2022-10-02T01:32:51.226Z,4.90
2022-10-02T01:35:20.849Z,3.17
2022-10-02T01:37:51.296Z,6.57
2022-10-02T01:40:29.695Z,4.27
2022-10-02T01:43:01.860Z,3.03
2022-10-02T01:45:49.848Z,5.90
2022-10-02T01:48:23.781Z,6.33
2022-10-02T01:51:08.633Z,5.37
2022-10-02T01:53:44.613Z,5.27
2022-10-02T01:56:20.142Z,4.97
2022-10-02T01:58:56.777Z,4.93
2022-10-02T02:01:40.620Z,7.40
2022-10-02T02:04:21.487Z,5.30
2022-10-02T02:06:57.660Z,8.03
2022-10-02T02:09:32.330Z,5.70
2022-10-02T02:12:09.301Z,9.10
2022-10-02T02:14:40.656Z,7.67
2022-10-02T02:17:13.521Z,9.63
2022-10-02T02:19:47.913Z,10.10
2022-10-02T02:22:21.909Z,3.90
2022-10-02T02:24:56.329Z,5.63
2022-10-02T02:27:29.611Z,9.20
2022-10-02T02:30:03.711Z,8.47
2022-10-02T02:32:36.990Z,7.27
2022-10-02T02:35:09.196Z,6.37
2022-10-02T02:37:40.915Z,6.13
2022-10-02T02:40:13.370Z,6.37
2022-10-02T02:42:47.187Z,4.63
2022-10-02T02:45:19.928Z,7.37
2022-10-02T02:47:51.490Z,9.93
2022-10-02T02:50:24.122Z,6.13
2022-10-02T02:52:58.475Z,5.43
2022-10-02T02:55:32.101Z,10.63
2022-10-02T02:58:06.411Z,6.43
2022-10-02T03:00:34.452Z,8.17
2022-10-02T03:03:02.248Z,8.10
2022-10-02T03:05:30.891Z,4.40
2022-10-02T03:08:02.030Z,7.33
2022-10-02T03:10:41.353Z,3.83
2022-10-02T03:13:24.891Z,5.33
2022-10-02T03:16:06.092Z,6.67
2022-10-02T03:18:48.221Z,6.93
2022-10-02T03:21:19.948Z,4.97
2022-10-02T03:24:02.301Z,5.87
2022-10-02T03:26:36.623Z,5.87
2022-10-02T03:29:11.755Z,9.57
2022-10-02T03:31:41.117Z,6.73
2022-10-02T03:34:09.562Z,4.00
2022-10-02T03:36:38.337Z,3.13
2022-10-02T03:39:25.765Z,7.50
2022-10-02T03:41:54.874Z,5.70
2022-10-02T03:44:24.010Z,5.97
2022-10-02T03:46:51.850Z,4.77
2022-10-02T03:49:19.581Z,4.17
2022-10-02T03:51:47.317Z,3.13
2022-10-02T03:54:19.103Z,3.03
2022-10-02T03:56:54.373Z,5.80
2022-10-02T03:59:34.501Z,6.57
2022-10-02T04:02:07.217Z,4.77
2022-10-02T04:04:45.452Z,3.63
2022-10-02T04:07:20.358Z,3.47
2022-10-02T04:09:55.624Z,6.13
2022-10-02T04:12:29.213Z,6.07
2022-10-02T04:15:05.083Z,5.20
2022-10-02T04:17:43.932Z,3.77
2022-10-02T04:20:18.834Z,3.53
2022-10-02T04:22:52.691Z,3.63
2022-10-02T04:25:23.967Z,2.57
2022-10-02T04:27:57.755Z,5.13
2022-10-02T04:30:27.243Z,4.67
2022-10-02T04:32:55.165Z,5.90
2022-10-02T04:35:30.328Z,5.17
2022-10-02T04:38:30.190Z,4.87
2022-10-02T04:41:12.394Z,3.23
2022-10-02T04:43:55.523Z,4.83
2022-10-02T04:46:50.742Z,2.50
2022-10-02T04:49:39.685Z,3.60
2022-10-02T04:52:25.020Z,2.70
2022-10-02T04:55:03.576Z,3.47
2022-10-02T04:57:54.247Z,2.40
2022-10-02T05:00:24.950Z,6.33
2022-10-02T05:03:10.442Z,6.00
2022-10-02T05:05:53.022Z,1.60
2022-10-02T05:08:39.319Z,4.53
2022-10-02T05:11:21.952Z,1.60
2022-10-02T05:14:06.364Z,5.33
2022-10-02T05:16:49.893Z,2.27
2022-10-02T05:19:41.322Z,3.23
2022-10-02T05:22:25.504Z,2.53
2022-10-02T05:25:06.650Z,2.47
2022-10-02T05:27:56.792Z,1.60
2022-10-02T05:30:25.525Z,4.10
2022-10-02T05:33:17.349Z,4.00
2022-10-02T05:36:10.562Z,2.80
2022-10-02T05:38:57.512Z,3.60
2022-10-02T05:41:34.924Z,3.47
2022-10-02T05:44:08.602Z,6.33
2022-10-02T05:46:41.639Z,5.57
2022-10-02T05:49:16.515Z,4.40
2022-10-02T05:51:53.666Z,3.40
2022-10-02T05:54:35.627Z,5.40
2022-10-02T05:57:12.595Z,4.77
2022-10-02T05:59:48.851Z,4.67
2022-10-02T06:02:25.394Z,2.40
2022-10-02T06:05:02.841Z,6.70
2022-10-02T06:07:33.122Z,2.03
2022-10-02T06:10:07.155Z,3.70
2022-10-02T06:12:39.535Z,1.93
2022-10-02T06:15:16.681Z,5.13
2022-10-02T06:17:50.063Z,3.40
2022-10-02T06:20:27.132Z,4.37
2022-10-02T06:23:02.669Z,3.57
2022-10-02T06:25:39.276Z,4.90
2022-10-02T06:28:14.663Z,5.37
2022-10-02T06:30:47.250Z,4.67
2022-10-02T06:33:20.002Z,5.47
2022-10-02T06:36:09.090Z,5.07
2022-10-02T06:38:52.104Z,1.43
2022-10-02T06:41:30.857Z,3.10
2022-10-02T06:44:21.878Z,4.07
2022-10-02T06:47:04.300Z,3.20
2022-10-02T06:49:42.549Z,5.47
2022-10-02T06:52:27.093Z,8.30
2022-10-02T06:55:10.575Z,3.73
2022-10-02T06:58:01.207Z,3.63
2022-10-02T07:00:29.786Z,4.63
2022-10-02T07:03:19.986Z,2.37
2022-10-02T07:06:11.503Z,4.70
2022-10-02T07:08:55.464Z,1.47
2022-10-02T07:11:32.690Z,2.37
2022-10-02T07:14:23.081Z,2.33
2022-10-02T07:17:06.877Z,2.90
2022-10-02T07:19:47.800Z,3.03
2022-10-02T07:22:44.695Z,1.33
2022-10-02T07:25:28.781Z,1.67
2022-10-02T07:28:08.875Z,2.03
2022-10-02T07:30:44.988Z,1.43
2022-10-02T07:33:29.235Z,1.33
2022-10-02T07:36:04.553Z,1.50
2022-10-02T07:38:54.516Z,1.53
2022-10-02T07:41:48.425Z,0.80
2022-10-02T07:44:32.146Z,1.53
2022-10-02T07:47:09.671Z,2.60
2022-10-02T07:49:51.864Z,1.00
2022-10-02T07:52:28.465Z,1.23
2022-10-02T07:55:07.331Z,4.20
2022-10-02T07:57:41.768Z,1.70
2022-10-02T08:00:15.985Z,2.57
2022-10-02T08:02:52.683Z,2.30
2022-10-02T08:05:23.539Z,1.10
2022-10-02T08:07:55.276Z,2.63
2022-10-02T08:10:26.816Z,3.90
2022-10-02T08:13:05.951Z,3.10
2022-10-02T08:15:38.232Z,3.60
2022-10-02T08:18:33.049Z,2.43
2022-10-02T08:21:02.877Z,2.37
2022-10-02T08:23:37.614Z,4.33
2022-10-02T08:26:10.892Z,2.13
2022-10-02T08:28:44.833Z,0.83
2022-10-02T08:31:15.991Z,3.60
2022-10-02T08:33:44.155Z,3.33
2022-10-02T08:36:48.145Z,3.17
2022-10-02T08:39:35.397Z,2.73
2022-10-02T08:42:29.007Z,0.97
2022-10-02T08:45:16.421Z,1.30
2022-10-02T08:48:20.757Z,0.70
2022-10-02T08:51:28.095Z,1.80
2022-10-02T08:54:26.765Z,0.97
2022-10-02T08:57:19.451Z,0.70
2022-10-02T09:00:05.220Z,1.40
2022-10-02T09:03:19.079Z,0.87
2022-10-02T09:06:13.073Z,1.73
2022-10-02T09:09:18.837Z,1.20
2022-10-02T09:12:33.896Z,1.30
2022-10-02T09:15:13.537Z,2.00
2022-10-02T09:17:50.222Z,2.60
2022-10-02T09:21:01.334Z,1.27
2022-10-02T09:24:09.889Z,1.17
2022-10-02T09:27:00.399Z,1.20
2022-10-02T09:29:56.060Z,3.33
2022-10-02T09:32:57.633Z,0.90
2022-10-02T09:36:06.494Z,1.07
2022-10-02T09:38:57.963Z,1.40
2022-10-02T09:42:03.915Z,1.73
2022-10-02T09:45:17.381Z,1.50
2022-10-02T09:48:43.088Z,3.07
2022-10-02T09:51:41.843Z,3.67
2022-10-02T09:54:48.056Z,4.47
2022-10-02T09:57:54.315Z,1.77
2022-10-02T10:00:27.696Z,3.10
2022-10-02T10:03:36.450Z,2.40
2022-10-02T10:06:50.346Z,2.70
2022-10-02T10:09:56.560Z,1.73
2022-10-02T10:12:58.530Z,2.23
2022-10-02T10:15:50.296Z,6.97
2022-10-02T10:18:36.359Z,2.83
2022-10-02T10:21:26.809Z,5.17
2022-10-02T10:24:26.787Z,4.80
2022-10-02T10:27:17.946Z,4.90
2022-10-02T10:30:10.219Z,3.63
2022-10-02T10:33:04.705Z,5.07
2022-10-02T10:35:52.470Z,4.00
2022-10-02T10:38:49.565Z,4.60
2022-10-02T10:42:01.542Z,3.83
2022-10-02T10:44:59.597Z,5.57
2022-10-02T10:47:52.531Z,3.27
2022-10-02T10:50:38.584Z,5.50
2022-10-02T10:53:31.489Z,4.53
2022-10-02T10:56:21.820Z,3.90
2022-10-02T10:59:16.704Z,3.43
2022-10-02T11:02:00.604Z,4.10
2022-10-02T11:04:54.553Z,3.97
2022-10-02T11:07:42.871Z,8.80
2022-10-02T11:10:23.898Z,5.13
2022-10-02T11:13:16.083Z,4.47
2022-10-02T11:16:07.469Z,6.13
2022-10-02T11:18:50.487Z,4.57
2022-10-02T11:21:55.164Z,6.03
2022-10-02T11:24:38.417Z,3.77
2022-10-02T11:27:24.448Z,4.33
2022-10-02T11:30:14.233Z,6.97
2022-10-02T11:32:58.061Z,4.20
2022-10-02T11:35:33.348Z,4.67
2022-10-02T11:38:19.516Z,4.40
2022-10-02T11:41:15.793Z,3.87
2022-10-02T11:44:06.211Z,3.53
2022-10-02T11:47:07.232Z,5.30
2022-10-02T11:50:14.744Z,8.10
2022-10-02T11:53:12.693Z,7.10
2022-10-02T11:55:57.033Z,4.90
2022-10-02T11:58:45.435Z,6.63
2022-10-02T12:01:21.177Z,5.90
2022-10-02T12:04:05.119Z,7.17
2022-10-02T12:06:51.539Z,4.67
2022-10-02T12:09:31.089Z,8.13
2022-10-02T12:12:14.787Z,8.20
2022-10-02T12:14:49.441Z,6.50
2022-10-02T12:17:53.174Z,6.93
2022-10-02T12:20:46.811Z,5.40
2022-10-02T12:23:47.313Z,5.77
2022-10-02T12:26:46.851Z,5.13
2022-10-02T12:29:25.229Z,5.63
2022-10-02T12:32:00.298Z,5.67
2022-10-02T12:34:39.613Z,5.90
2022-10-02T12:37:16.486Z,4.80
2022-10-02T12:39:55.712Z,8.13
2022-10-02T12:42:46.788Z,6.07
2022-10-02T12:45:48.684Z,7.80
2022-10-02T12:48:29.330Z,4.80
2022-10-02T12:51:20.891Z,3.40
2022-10-02T12:54:29.921Z,5.13
2022-10-02T12:57:36.646Z,10.67
2022-10-02T13:00:15.377Z,8.90
2022-10-02T13:03:02.064Z,7.17
2022-10-02T13:05:54.260Z,7.70
2022-10-02T13:08:32.568Z,5.77
2022-10-02T13:11:09.026Z,5.30
2022-10-02T13:14:00.525Z,5.70
2022-10-02T13:16:52.935Z,6.30
2022-10-02T13:19:32.683Z,6.57
2022-10-02T13:22:05.462Z,5.77
2022-10-02T13:24:50.281Z,6.57
2022-10-02T13:27:31.403Z,7.30
2022-10-02T13:30:11.234Z,3.97
2022-10-02T13:32:59.237Z,6.07
2022-10-02T13:35:45.954Z,9.27
2022-10-02T13:38:31.141Z,6.60
2022-10-02T13:41:09.673Z,5.60
2022-10-02T13:43:58.609Z,5.27
2022-10-02T13:46:53.541Z,11.47
2022-10-02T13:49:40.048Z,11.17
2022-10-02T13:52:20.918Z,10.80
2022-10-02T13:55:05.590Z,7.80
2022-10-02T13:57:46.087Z,5.83
2022-10-02T14:00:23.626Z,3.47
2022-10-02T14:03:05.917Z,8.10
2022-10-02T14:05:43.278Z,3.60
2022-10-02T14:08:35.410Z,5.20
2022-10-02T14:11:17.075Z,6.13
2022-10-02T14:14:03.346Z,6.63
2022-10-02T14:16:52.519Z,5.57
2022-10-02T14:19:38.388Z,5.00
2022-10-02T14:22:33.799Z,6.67
2022-10-02T14:25:28.397Z,8.07
2022-10-02T14:28:19.237Z,7.53
2022-10-02T14:30:56.339Z,5.43
2022-10-02T14:33:35.945Z,6.60
2022-10-02T14:36:09.391Z,4.40
2022-10-02T14:39:03.424Z,3.63
2022-10-02T14:41:55.265Z,6.43
2022-10-02T14:44:39.793Z,6.00
2022-10-02T14:47:21.401Z,6.60
2022-10-02T14:50:23.728Z,10.70
2022-10-02T14:53:29.610Z,6.40
2022-10-02T14:56:29.823Z,4.20
2022-10-02T14:59:13.508Z,7.47
2022-10-02T15:01:45.928Z,5.50
2022-10-02T15:04:42.698Z,9.23
2022-10-02T15:07:13.171Z,6.00
2022-10-02T15:09:59.206Z,8.57
2022-10-02T15:12:34.850Z,5.63
2022-10-02T15:15:14.034Z,7.37
2022-10-02T15:17:55.236Z,8.93
2022-10-02T15:20:41.080Z,4.07
2022-10-02T15:23:12.440Z,7.67
2022-10-02T15:25:57.234Z,6.57
2022-10-02T15:28:37.215Z,8.77
2022-10-02T15:31:20.468Z,9.80
2022-10-02T15:33:58.595Z,8.93
2022-10-02T15:36:43.899Z,7.23
2022-10-02T15:39:31.611Z,8.23
2022-10-02T15:42:05.931Z,10.00
2022-10-02T15:45:09.681Z,7.23
2022-10-02T15:48:08.130Z,7.57
2022-10-02T15:50:49.674Z,9.63
2022-10-02T15:53:41.128Z,8.07
2022-10-02T15:56:26.279Z,9.70
2022-10-02T15:59:20.272Z,12.20
2022-10-02T16:02:00.721Z,7.47
2022-10-02T16:04:35.572Z,7.53
2022-10-02T16:07:46.339Z,12.73
2022-10-02T16:10:21.745Z,12.50
2022-10-02T16:13:05.994Z,13.53
2022-10-02T16:15:48.235Z,11.40
2022-10-02T16:18:29.993Z,10.57
2022-10-02T16:21:15.832Z,10.73
2022-10-02T16:24:12.018Z,11.23
2022-10-02T16:27:12.120Z,10.30
2022-10-02T16:29:47.670Z,10.67
2022-10-02T16:32:24.384Z,10.07
2022-10-02T16:35:16.630Z,11.17
2022-10-02T16:37:48.400Z,9.50
2022-10-02T16:40:27.227Z,16.03
2022-10-02T16:43:26.336Z,9.77
2022-10-02T16:46:04.470Z,8.03
2022-10-02T16:48:42.579Z,11.20
2022-10-02T16:51:30.098Z,14.33
2022-10-02T16:54:13.713Z,9.97
2022-10-02T16:56:47.711Z,11.13
2022-10-02T16:59:21.376Z,10.80
2022-10-02T17:02:16.505Z,11.80
2022-10-02T17:04:47.580Z,10.87
2022-10-02T17:07:33.553Z,9.80
2022-10-02T17:10:18.800Z,12.07
2022-10-02T17:12:52.689Z,8.63
2022-10-02T17:15:26.475Z,6.70
2022-10-02T17:18:09.977Z,7.43
2022-10-02T17:20:44.511Z,10.77
2022-10-02T17:23:17.677Z,10.63
2022-10-02T17:25:54.465Z,7.37
2022-10-02T17:28:26.736Z,10.43
2022-10-02T17:31:17.600Z,10.93
2022-10-02T17:33:51.665Z,7.03
2022-10-02T17:36:31.687Z,10.57
2022-10-02T17:39:22.208Z,9.17
2022-10-02T17:41:56.909Z,7.73
2022-10-02T17:44:45.316Z,5.73
2022-10-02T17:47:38.779Z,6.50
2022-10-02T17:50:33.580Z,6.93
2022-10-02T17:53:34.487Z,11.03
2022-10-02T17:56:37.308Z,9.80
2022-10-02T17:59:28.025Z,12.77
2022-10-02T18:02:06.249Z,11.67
2022-10-02T18:04:45.825Z,8.90
2022-10-02T18:07:32.712Z,11.00
2022-10-02T18:10:17.331Z,14.13
2022-10-02T18:13:19.441Z,8.90
2022-10-02T18:16:04.653Z,13.07
2022-10-02T18:18:40.513Z,14.17
2022-10-02T18:21:32.289Z,10.00
2022-10-02T18:24:20.667Z,8.93
2022-10-02T18:27:18.348Z,9.57
2022-10-02T18:29:58.614Z,8.53
2022-10-02T18:32:58.501Z,9.07
2022-10-02T18:35:43.153Z,9.73
2022-10-02T18:38:20.917Z,8.90
2022-10-02T18:40:56.385Z,7.67
2022-10-02T18:43:52.612Z,11.97
2022-10-02T18:46:40.535Z,6.73
2022-10-02T18:49:27.303Z,10.10
2022-10-02T18:52:09.304Z,19.13
2022-10-02T18:54:51.018Z,11.77
2022-10-02T18:57:31.722Z,13.97
2022-10-02T19:00:06.607Z,8.03
2022-10-02T19:02:53.767Z,8.43
2022-10-02T19:05:26.585Z,6.80
2022-10-02T19:08:06.768Z,13.27
2022-10-02T19:10:45.003Z,8.60
2022-10-02T19:13:18.043Z,9.03
2022-10-02T19:15:48.793Z,12.70
2022-10-02T19:18:18.898Z,9.57
2022-10-02T19:20:53.452Z,8.87
2022-10-02T19:23:31.922Z,18.83
2022-10-02T19:26:04.928Z,10.90
2022-10-02T19:28:36.634Z,13.10
2022-10-02T19:31:10.465Z,11.93
2022-10-02T19:33:51.209Z,9.10
2022-10-02T19:36:23.482Z,11.50
2022-10-02T19:38:55.047Z,9.33
2022-10-02T19:41:23.793Z,12.83
2022-10-02T19:43:56.395Z,9.47
2022-10-02T19:46:39.220Z,9.80
2022-10-02T19:49:08.780Z,8.93
2022-10-02T19:51:45.844Z,8.13
2022-10-02T19:54:19.861Z,6.50
2022-10-02T19:56:47.895Z,9.37
2022-10-02T19:59:19.274Z,6.90
2022-10-02T20:01:51.722Z,8.50
2022-10-02T20:04:21.824Z,7.70
2022-10-02T20:06:55.055Z,10.00
2022-10-02T20:09:29.377Z,9.10
2022-10-02T20:12:01.887Z,7.27
2022-10-02T20:14:35.109Z,9.53
2022-10-02T20:17:11.196Z,9.73
2022-10-02T20:19:43.841Z,6.17
2022-10-02T20:22:23.961Z,10.43
2022-10-02T20:25:07.427Z,8.00
2022-10-02T20:27:42.680Z,10.23
2022-10-02T20:30:14.755Z,8.03
2022-10-02T20:32:48.237Z,10.07
2022-10-02T20:35:21.510Z,6.37
2022-10-02T20:37:54.062Z,8.70
2022-10-02T20:40:26.310Z,9.60
2022-10-02T20:43:01.477Z,10.13
2022-10-02T20:45:37.823Z,6.63
2022-10-02T20:49:03.010Z,17.07
2022-10-02T20:51:45.032Z,13.47
2022-10-02T20:54:40.537Z,9.17
2022-10-02T21:00:20.734Z,8.00
2022-10-02T21:03:26.408Z,9.03
2022-10-02T21:06:12.767Z,7.87
2022-10-02T21:09:05.195Z,8.50
2022-10-02T21:12:04.901Z,9.53
2022-10-02T21:15:13.813Z,13.00
2022-10-02T21:18:20.587Z,12.03
2022-10-02T21:21:05.459Z,10.63
2022-10-02T21:24:05.385Z,7.40
2022-10-02T21:27:08.999Z,10.03
2022-10-02T21:30:00.026Z,9.37
2022-10-02T21:33:00.938Z,7.93
2022-10-02T21:35:39.830Z,11.20
2022-10-02T21:38:50.903Z,8.93
2022-10-02T21:41:53.796Z,5.13
2022-10-02T21:45:04.318Z,10.43
2022-10-02T21:47:57.760Z,8.20
2022-10-02T21:51:18.378Z,12.60
2022-10-02T21:54:18.931Z,6.23
2022-10-02T21:57:16.597Z,8.10
2022-10-02T22:00:13.990Z,7.63
2022-10-02T22:03:29.191Z,10.43
2022-10-02T22:06:06.969Z,6.90
2022-10-02T22:08:46.354Z,6.80
2022-10-02T22:11:24.006Z,11.20
2022-10-02T22:13:55.947Z,6.33
2022-10-02T22:16:36.387Z,10.23
2022-10-02T22:19:14.777Z,8.73
2022-10-02T22:21:57.837Z,11.73
2022-10-02T22:24:52.886Z,6.87
2022-10-02T22:27:45.454Z,11.00
2022-10-02T22:30:24.008Z,10.67
2022-10-02T22:33:27.116Z,9.40
2022-10-02T22:36:22.058Z,13.57
2022-10-02T22:38:53.168Z,9.23
2022-10-02T22:41:27.212Z,8.90
2022-10-02T22:43:58.458Z,6.07
2022-10-02T22:46:40.898Z,15.93
2022-10-02T22:49:22.330Z,10.50
2022-10-02T22:51:59.977Z,9.13
2022-10-02T22:54:39.328Z,12.80
2022-10-02T22:57:19.248Z,12.87
2022-10-02T22:59:55.331Z,7.30
2022-10-02T23:02:28.979Z,11.83
2022-10-02T23:05:06.470Z,5.43
2022-10-02T23:07:44.517Z,12.10
2022-10-02T23:10:23.690Z,13.33
2022-10-02T23:12:58.725Z,11.87
2022-10-02T23:15:35.815Z,11.40
2022-10-02T23:18:06.415Z,10.93
2022-10-02T23:20:39.604Z,6.87
2022-10-02T23:23:16.402Z,9.37
2022-10-02T23:25:49.495Z,9.10
2022-10-02T23:28:23.696Z,6.90
2022-10-02T23:31:02.751Z,8.67
2022-10-02T23:33:42.262Z,8.97
2022-10-02T23:36:24.153Z,9.10
2022-10-02T23:38:59.382Z,9.47
2022-10-02T23:41:37.474Z,12.33
2022-10-02T23:44:17.362Z,12.47
2022-10-02T23:47:00.308Z,14.87
2022-10-02T23:49:34.956Z,12.37
2022-10-02T23:52:28.125Z,11.90
2022-10-02T23:55:13.995Z,14.50
2022-10-02T23:57:57.658Z,12.63
